Time;durP1;ratioP1;P1;durP2;ratioP2;P2;SDS_P1;SDS_P2;PMS_P1;PMS_P2;Temp;Humidity;BMP_temperature;BMP_pressure;BME280_temperature;BME280_humidity;BME280_pressure;Samples;Min_cycle;Max_cycle;Signal;HPM_P1;HPM_P2
2022/05/20 00:02:06;;;;;;;43.70;37.07;;;17.60;75.40;;;;;;5059954;28;20200;-83
2022/05/20 00:04:32;;;;;;;41.97;37.30;;;17.70;74.60;;;;;;5056965;28;20643;-83
2022/05/20 00:06:58;;;;;;;46.10;40.13;;;17.60;75.80;;;;;;5054939;28;20192;-81
2022/05/20 00:09:24;;;;;;;42.20;37.77;;;17.70;77.40;;;;;;5055502;28;20219;-85
2022/05/20 00:11:50;;;;;;;41.77;37.30;;;17.60;76.40;;;;;;5055193;28;20184;-83
2022/05/20 00:14:16;;;;;;;41.40;36.90;;;17.70;75.40;;;;;;5056400;28;20212;-79
2022/05/20 00:16:41;;;;;;;38.73;34.63;;;17.80;74.00;;;;;;5054434;28;20212;-80
2022/05/20 00:19:09;;;;;;;40.17;35.47;;;17.80;74.00;;;;;;5054729;28;20639;-79
2022/05/20 00:21:36;;;;;;;38.97;34.73;;;17.70;74.40;;;;;;5054792;28;20671;-83
2022/05/20 00:24:02;;;;;;;39.30;35.07;;;17.70;76.30;;;;;;5053478;28;20196;-83
2022/05/20 00:26:28;;;;;;;38.90;34.73;;;17.80;74.80;;;;;;5054280;28;20284;-79
2022/05/20 00:28:54;;;;;;;39.00;34.90;;;18.00;73.70;;;;;;5053887;28;20213;-81
2022/05/20 00:31:22;;;;;;;37.27;33.23;;;17.80;72.20;;;;;;5053685;28;20266;-82
2022/05/20 00:33:49;;;;;;;38.07;34.00;;;17.70;75.00;;;;;;5052522;28;20234;-82
2022/05/20 00:36:15;;;;;;;36.47;32.67;;;17.70;75.70;;;;;;5054264;28;20290;-83
2022/05/20 00:38:41;;;;;;;36.67;32.77;;;17.60;77.90;;;;;;5054093;28;20191;-82
2022/05/20 00:41:08;;;;;;;34.70;30.73;;;17.70;78.30;;;;;;5054258;28;20211;-82
2022/05/20 00:43:36;;;;;;;35.30;31.47;;;17.60;77.30;;;;;;5053887;28;20238;-77
2022/05/20 00:46:05;;;;;;;32.90;29.50;;;17.60;78.10;;;;;;5054034;28;20188;-81
2022/05/20 00:48:31;;;;;;;31.73;28.53;;;17.50;78.80;;;;;;5053988;28;20198;-84
2022/05/20 00:51:00;;;;;;;31.47;27.90;;;17.60;78.40;;;;;;5053645;28;20193;-79
2022/05/20 00:53:32;;;;;;;31.60;28.20;;;17.60;77.80;;;;;;5054144;28;20193;-79
2022/05/20 00:55:58;;;;;;;36.97;27.63;;;17.80;75.40;;;;;;5053911;28;20181;-77
2022/05/20 00:58:26;;;;;;;32.90;29.30;;;18.00;71.30;;;;;;5052722;28;20268;-77
2022/05/20 01:00:55;;;;;;;33.13;29.67;;;17.90;69.20;;;;;;5053918;28;20177;-77
2022/05/20 01:03:28;;;;;;;32.77;29.40;;;17.70;73.50;;;;;;5054769;28;20185;-84
2022/05/20 01:05:56;;;;;;;33.40;29.67;;;17.60;73.50;;;;;;5055991;28;20236;-78
2022/05/20 01:08:25;;;;;;;34.30;30.60;;;17.40;76.20;;;;;;5054082;28;20184;-84
2022/05/20 01:10:52;;;;;;;33.77;29.23;;;17.40;78.70;;;;;;5054221;28;20239;-77
2022/05/20 01:13:18;;;;;;;29.33;26.30;;;17.60;75.90;;;;;;5053227;28;20193;-81
2022/05/20 01:15:46;;;;;;;30.83;26.87;;;17.50;76.20;;;;;;5055573;28;20266;-77
2022/05/20 01:18:14;;;;;;;30.47;27.27;;;17.30;79.70;;;;;;5070386;28;20207;-77
2022/05/20 01:20:44;;;;;;;31.90;27.10;;;17.20;83.00;;;;;;5069515;28;20249;-81
2022/05/20 01:23:16;;;;;;;30.20;26.80;;;17.00;85.30;;;;;;5057527;28;20179;-78
2022/05/20 01:25:45;;;;;;;29.43;26.53;;;17.10;86.30;;;;;;5060936;28;20195;-80
2022/05/20 01:28:14;;;;;;;29.90;26.80;;;17.00;87.70;;;;;;5061846;28;20192;-77
2022/05/20 01:30:46;;;;;;;29.23;26.13;;;16.90;88.30;;;;;;5063797;28;20630;-84
2022/05/20 01:33:30;;;;;;;28.23;25.20;;;17.00;87.90;;;;;;5052530;28;20216;-79
2022/05/20 01:35:56;;;;;;;29.37;26.10;;;17.10;88.30;;;;;;5053352;28;20176;-79
2022/05/20 01:38:22;;;;;;;28.27;25.33;;;17.20;84.50;;;;;;5052409;28;20224;-83
2022/05/20 01:40:52;;;;;;;28.63;25.67;;;17.10;85.70;;;;;;5053515;28;20631;-82
2022/05/20 01:43:20;;;;;;;28.70;25.70;;;17.10;84.40;;;;;;5069659;28;20191;-76
2022/05/20 01:46:01;;;;;;;29.20;26.03;;;17.20;84.70;;;;;;5064942;28;20185;-81
2022/05/20 01:48:30;;;;;;;28.67;25.67;;;17.10;85.40;;;;;;5056110;28;20186;-80
2022/05/20 01:50:56;;;;;;;29.13;26.07;;;17.10;84.10;;;;;;5054917;28;20664;-82
2022/05/20 01:53:50;;;;;;;29.73;26.63;;;17.00;85.30;;;;;;5053940;28;20186;-83
2022/05/20 01:56:30;;;;;;;29.27;25.27;;;17.00;86.50;;;;;;5053432;28;20180;-80
2022/05/20 01:59:05;;;;;;;29.77;26.60;;;17.30;84.10;;;;;;5053196;28;20185;-78
2022/05/20 02:01:37;;;;;;;28.43;25.43;;;17.50;81.20;;;;;;5053067;28;20226;-78
2022/05/20 02:04:14;;;;;;;31.13;27.73;;;17.60;76.30;;;;;;5053154;28;20177;-78
2022/05/20 02:06:45;;;;;;;28.00;25.00;;;17.30;78.00;;;;;;5053302;28;20178;-78
2022/05/20 02:09:27;;;;;;;29.20;25.00;;;17.20;82.20;;;;;;5053128;28;20169;-79
2022/05/20 02:11:55;;;;;;;30.03;25.53;;;17.30;81.30;;;;;;5055645;28;20183;-76
2022/05/20 02:14:33;;;;;;;29.27;25.07;;;17.20;81.90;;;;;;5062728;28;20188;-78
2022/05/20 02:17:06;;;;;;;29.33;26.37;;;17.00;85.20;;;;;;5068041;28;20202;-78
2022/05/20 02:19:52;;;;;;;29.13;26.13;;;17.00;87.00;;;;;;5067721;28;20193;-76
2022/05/20 02:22:25;;;;;;;31.53;25.53;;;17.20;85.50;;;;;;5070887;28;20219;-76
2022/05/20 02:24:52;;;;;;;29.20;25.43;;;17.20;84.50;;;;;;5060276;28;20188;-76
2022/05/20 02:27:25;;;;;;;28.93;25.13;;;17.20;84.90;;;;;;5054189;28;20542;-81
2022/05/20 02:30:22;;;;;;;27.80;25.00;;;17.40;83.40;;;;;;5063878;28;20200;-76
2022/05/20 02:32:59;;;;;;;28.47;25.47;;;17.50;81.00;;;;;;5059539;28;20193;-75
2022/05/20 02:35:26;;;;;;;28.03;25.03;;;17.60;78.70;;;;;;5061898;28;20169;-76
2022/05/20 02:37:52;;;;;;;27.80;25.00;;;17.70;75.40;;;;;;5063221;28;20235;-74
2022/05/20 02:40:20;;;;;;;30.77;27.00;;;17.70;74.60;;;;;;5063458;28;20187;-75
2022/05/20 02:42:46;;;;;;;29.17;25.77;;;17.60;75.10;;;;;;5060600;28;20205;-77
2022/05/20 02:45:14;;;;;;;28.37;25.37;;;17.60;74.50;;;;;;5058683;28;20187;-81
2022/05/20 02:47:48;;;;;;;26.80;24.00;;;17.50;74.60;;;;;;5059559;28;20198;-84
2022/05/20 02:50:24;;;;;;;30.27;25.20;;;17.30;77.50;;;;;;5056949;28;20190;-78
2022/05/20 02:53:28;;;;;;;27.80;24.77;;;17.30;78.20;;;;;;5056671;28;20190;-77
2022/05/20 02:55:53;;;;;;;28.03;25.13;;;17.20;77.60;;;;;;5056572;28;20263;-82
2022/05/20 03:04:11;;;;;;;30.27;27.03;;;17.20;80.00;;;;;;5055767;28;20196;-81
2022/05/20 03:06:51;;;;;;;30.53;26.37;;;17.20;80.90;;;;;;5055493;28;20187;-78
2022/05/20 03:09:20;;;;;;;32.47;26.13;;;17.40;78.50;;;;;;5057690;28;20206;-77
2022/05/20 03:11:46;;;;;;;31.10;27.70;;;17.50;76.90;;;;;;5057441;28;20570;-78
2022/05/20 03:14:13;;;;;;;30.87;27.17;;;17.50;74.60;;;;;;5056465;28;20185;-82
2022/05/20 03:16:40;;;;;;;31.87;28.40;;;17.60;72.40;;;;;;5057573;28;20665;-84
2022/05/20 03:19:07;;;;;;;30.37;27.17;;;17.40;74.00;;;;;;5057812;28;20189;-77
2022/05/20 03:21:35;;;;;;;31.23;27.97;;;17.20;74.90;;;;;;5057253;28;20637;-83
2022/05/20 03:24:01;;;;;;;31.23;27.93;;;17.30;76.80;;;;;;5055588;28;20208;-82
2022/05/20 03:26:27;;;;;;;30.83;27.53;;;17.30;78.70;;;;;;5055948;28;20649;-78
2022/05/20 03:28:53;;;;;;;32.23;28.00;;;17.40;77.60;;;;;;5055634;28;20203;-82
2022/05/20 03:31:19;;;;;;;33.03;28.40;;;17.50;76.20;;;;;;5054705;28;20194;-83
2022/05/20 03:33:46;;;;;;;31.67;28.27;;;17.60;74.90;;;;;;5056686;28;20271;-81
2022/05/20 03:36:12;;;;;;;30.80;26.40;;;17.60;72.60;;;;;;5055827;28;20181;-81
2022/05/20 03:38:39;;;;;;;27.03;24.17;;;17.70;70.00;;;;;;5056510;28;20269;-82
2022/05/20 03:41:06;;;;;;;25.83;23.23;;;17.50;69.90;;;;;;5056693;28;20521;-81
2022/05/20 03:43:33;;;;;;;28.63;25.43;;;17.40;70.80;;;;;;5055815;28;20180;-83
2022/05/20 03:45:59;;;;;;;30.77;26.83;;;17.30;73.90;;;;;;5055739;28;20183;-84
2022/05/20 03:48:25;;;;;;;31.67;27.43;;;17.20;75.80;;;;;;5054483;28;20179;-77
2022/05/20 03:50:51;;;;;;;32.53;29.17;;;17.20;78.20;;;;;;5064072;28;20545;-76
2022/05/20 03:53:17;;;;;;;33.17;29.63;;;17.20;80.90;;;;;;5060493;28;20228;-78
2022/05/20 03:55:43;;;;;;;35.50;29.17;;;17.20;81.30;;;;;;5060313;28;20223;-79
2022/05/20 03:58:08;;;;;;;35.30;29.97;;;17.10;83.40;;;;;;5056501;28;20304;-83
2022/05/20 04:01:56;;;;;;;34.57;30.73;;;17.00;84.60;;;;;;5053399;28;20275;-79
2022/05/20 04:03:23;;;;;;;33.37;29.53;;;17.00;84.80;;;;;;5054646;28;20238;-83
2022/05/20 04:05:49;;;;;;;34.63;30.67;;;17.00;84.20;;;;;;5054894;28;20534;-79
2022/05/20 04:08:15;;;;;;;35.83;31.57;;;17.00;85.70;;;;;;5055021;28;20184;-78
2022/05/20 04:10:42;;;;;;;35.40;31.53;;;17.00;87.60;;;;;;5054505;28;20672;-81
2022/05/20 04:13:07;;;;;;;35.73;31.97;;;17.00;87.40;;;;;;5054788;28;20186;-80
2022/05/20 04:15:33;;;;;;;36.10;31.10;;;17.00;87.10;;;;;;5054336;28;20319;-80
2022/05/20 04:17:59;;;;;;;34.17;30.40;;;17.00;88.10;;;;;;5054787;28;20302;-77
2022/05/20 04:20:24;;;;;;;33.37;29.60;;;17.00;88.20;;;;;;5054810;28;20191;-82
2022/05/20 04:22:50;;;;;;;31.00;27.53;;;17.10;88.10;;;;;;5054705;28;20653;-78
2022/05/20 04:25:16;;;;;;;33.13;28.33;;;17.10;84.90;;;;;;5054439;28;20549;-80
2022/05/20 04:27:41;;;;;;;32.87;29.30;;;17.00;85.60;;;;;;5054597;28;20172;-82
2022/05/20 04:30:08;;;;;;;32.87;29.37;;;17.20;84.90;;;;;;5054492;28;20259;-78
2022/05/20 04:32:33;;;;;;;31.47;28.17;;;17.00;85.00;;;;;;5053959;28;20199;-78
2022/05/20 04:34:59;;;;;;;34.50;30.40;;;17.00;84.00;;;;;;5054444;28;20197;-80
2022/05/20 04:37:27;;;;;;;35.07;31.50;;;17.00;85.30;;;;;;5054313;28;20270;-83
2022/05/20 04:39:53;;;;;;;35.80;31.87;;;17.00;87.00;;;;;;5054383;28;20634;-77
2022/05/20 04:47:48;;;;;;;38.73;33.43;;;16.80;89.90;;;;;;5054556;28;20715;-82
2022/05/20 04:50:14;;;;;;;38.67;34.13;;;16.90;89.90;;;;;;5057459;28;20182;-83
2022/05/20 04:52:39;;;;;;;35.60;31.57;;;17.00;88.70;;;;;;5067392;28;20180;-81
2022/05/20 04:55:07;;;;;;;41.07;33.63;;;17.10;86.20;;;;;;5059640;28;20393;-80
2022/05/20 04:57:36;;;;;;;35.50;31.17;;;17.20;86.10;;;;;;5053800;28;20220;-80
2022/05/20 05:00:23;;;;;;;35.50;31.37;;;17.30;85.50;;;;;;5054347;28;20195;-78
2022/05/20 05:02:50;;;;;;;37.70;33.60;;;17.30;84.50;;;;;;5054183;28;20180;-84
2022/05/20 05:05:22;;;;;;;37.00;32.43;;;17.30;84.70;;;;;;5053436;28;20680;-81
2022/05/20 05:07:50;;;;;;;35.27;31.67;;;17.20;84.90;;;;;;5053927;28;20673;-78
2022/05/20 05:10:22;;;;;;;36.87;32.67;;;17.10;84.80;;;;;;5051914;28;20188;-81
2022/05/20 05:12:48;;;;;;;34.47;30.83;;;17.10;87.40;;;;;;5054839;28;20191;-79
2022/05/20 05:15:15;;;;;;;35.73;31.60;;;17.20;87.60;;;;;;5061665;28;20173;-78
2022/05/20 05:20:27;;;;;;;34.30;29.87;;;17.40;84.90;;;;;;5058771;28;20240;-77
2022/05/20 05:22:55;;;;;;;33.93;30.07;;;17.60;81.80;;;;;;5054022;28;20269;-81
2022/05/20 05:25:26;;;;;;;34.80;30.33;;;17.80;78.20;;;;;;5053870;28;20226;-82
2022/05/20 05:27:52;;;;;;;36.00;30.27;;;17.90;75.90;;;;;;5053940;28;20208;-79
2022/05/20 05:30:18;;;;;;;34.63;30.43;;;18.00;74.70;;;;;;5056150;28;20201;-77
2022/05/20 05:32:45;;;;;;;36.30;29.60;;;18.00;69.80;;;;;;5054927;28;20180;-82
2022/05/20 05:35:17;;;;;;;32.93;29.33;;;17.90;70.90;;;;;;5055552;28;20189;-82
2022/05/20 05:37:43;;;;;;;34.73;30.97;;;17.80;71.80;;;;;;5054945;28;20213;-82
2022/05/20 05:40:12;;;;;;;35.70;31.90;;;17.70;72.60;;;;;;5053492;28;20232;-79
2022/05/20 05:42:39;;;;;;;38.20;32.07;;;17.80;73.00;;;;;;5054425;28;20199;-81
2022/05/20 05:45:06;;;;;;;34.70;31.03;;;17.90;73.40;;;;;;5064575;28;20434;-76
2022/05/20 05:47:31;;;;;;;34.47;30.60;;;18.10;71.80;;;;;;5054326;28;20190;-78
2022/05/20 05:49:57;;;;;;;35.23;31.00;;;18.30;70.30;;;;;;5055636;28;20650;-82
2022/05/20 05:52:23;;;;;;;34.93;31.00;;;18.30;66.70;;;;;;5055269;28;20598;-77
2022/05/20 05:54:48;;;;;;;29.13;25.90;;;18.30;68.10;;;;;;5063549;28;20220;-80
2022/05/20 05:57:14;;;;;;;34.03;29.07;;;18.70;76.00;;;;;;5073414;28;20572;-78
2022/05/20 05:59:40;;;;;;;36.97;30.10;;;18.90;67.10;;;;;;5073566;28;20240;-76
2022/05/20 06:02:08;;;;;;;30.67;27.53;;;18.90;62.10;;;;;;5054696;28;20193;-78
2022/05/20 06:04:34;;;;;;;32.93;29.43;;;19.00;58.20;;;;;;5065012;28;20211;-79
2022/05/20 06:07:00;;;;;;;32.67;29.20;;;19.00;56.90;;;;;;5072684;28;20195;-77
2022/05/20 06:09:26;;;;;;;32.50;28.47;;;19.00;55.70;;;;;;5073162;28;20180;-80
2022/05/20 06:11:52;;;;;;;30.07;26.87;;;19.10;53.20;;;;;;5072349;28;20196;-80
2022/05/20 06:14:18;;;;;;;29.43;25.97;;;19.30;50.10;;;;;;5069253;28;20177;-81
2022/05/20 06:16:44;;;;;;;31.90;28.40;;;19.30;49.60;;;;;;5063568;28;20733;-82
2022/05/20 06:19:10;;;;;;;34.00;28.57;;;19.00;51.40;;;;;;5060921;28;20183;-81
2022/05/20 06:21:37;;;;;;;32.90;28.67;;;19.00;56.50;;;;;;5056719;28;20206;-77
2022/05/20 06:24:04;;;;;;;37.03;31.20;;;19.00;54.40;;;;;;5056646;28;20197;-79
2022/05/20 06:26:30;;;;;;;35.10;31.30;;;18.80;58.90;;;;;;5057793;28;20187;-76
2022/05/20 06:28:56;;;;;;;34.27;30.70;;;18.70;63.80;;;;;;5066454;28;20193;-76
2022/05/20 06:31:22;;;;;;;32.63;29.20;;;18.70;66.60;;;;;;5065205;28;20182;-84
2022/05/20 06:33:48;;;;;;;35.50;31.70;;;19.10;64.60;;;;;;5072630;28;20205;-76
2022/05/20 06:41:43;;;;;;;39.40;32.30;;;18.90;57.70;;;;;;5059690;28;20216;-79
2022/05/20 06:44:12;;;;;;;36.40;32.23;;;18.90;59.20;;;;;;5058837;28;20182;-81
2022/05/20 06:46:39;;;;;;;38.20;33.97;;;19.00;58.40;;;;;;5056509;28;20227;-81
2022/05/20 06:49:06;;;;;;;37.00;33.03;;;19.20;57.30;;;;;;5057940;28;20215;-83
2022/05/20 06:51:36;;;;;;;38.77;34.17;;;19.30;56.10;;;;;;5057022;28;20180;-81
2022/05/20 06:54:03;;;;;;;35.53;31.70;;;19.60;53.50;;;;;;5056702;28;20254;-82
2022/05/20 06:56:30;;;;;;;35.13;31.40;;;19.60;49.30;;;;;;5057743;28;20191;-83
2022/05/20 06:58:58;;;;;;;33.67;30.07;;;19.50;51.00;;;;;;5057409;28;20193;-84
2022/05/20 07:01:24;;;;;;;37.03;33.10;;;19.60;45.80;;;;;;5056564;28;20650;-79
2022/05/20 07:03:50;;;;;;;38.40;33.83;;;19.50;48.50;;;;;;5056221;28;20250;-80
2022/05/20 07:06:18;;;;;;;36.57;30.43;;;19.30;55.30;;;;;;5056856;28;20306;-76
2022/05/20 07:08:50;;;;;;;33.40;29.70;;;19.40;56.70;;;;;;5057182;28;20230;-83
2022/05/20 07:11:18;;;;;;;30.27;26.93;;;19.40;51.70;;;;;;5057118;28;20264;-84
2022/05/20 07:13:45;;;;;;;31.87;27.23;;;19.40;48.50;;;;;;5057040;28;20198;-81
2022/05/20 07:16:11;;;;;;;31.90;28.40;;;19.40;44.80;;;;;;5056781;28;20587;-84
2022/05/20 07:18:37;;;;;;;36.73;28.03;;;19.40;46.70;;;;;;5057623;28;20659;-80
2022/05/20 07:21:03;;;;;;;32.60;28.63;;;19.30;51.10;;;;;;5059559;28;20166;-82
2022/05/20 07:23:31;;;;;;;30.67;27.37;;;19.40;51.00;;;;;;5062885;28;20537;-78
2022/05/20 07:25:57;;;;;;;29.20;25.63;;;19.40;46.30;;;;;;5058660;28;20553;-85
2022/05/20 07:28:23;;;;;;;31.33;26.83;;;19.60;41.90;;;;;;5059182;28;20642;-85
2022/05/20 07:30:50;;;;;;;29.57;25.10;;;19.70;39.80;;;;;;5057768;28;20594;-80
2022/05/20 07:33:16;;;;;;;31.70;26.10;;;19.90;37.60;;;;;;5057314;28;20267;-79
2022/05/20 07:35:41;;;;;;;30.23;26.83;;;19.80;34.20;;;;;;5058194;28;20224;-82
2022/05/20 07:38:08;;;;;;;30.40;26.57;;;19.80;38.20;;;;;;5059074;28;20702;-79
2022/05/20 07:40:34;;;;;;;29.53;26.33;;;19.80;39.30;;;;;;5059519;28;20181;-82
2022/05/20 07:43:00;;;;;;;30.07;26.37;;;19.90;39.30;;;;;;5060384;28;20730;-84
2022/05/20 07:45:31;;;;;;;28.40;25.00;;;19.90;42.00;;;;;;5063048;28;20360;-80
2022/05/20 07:47:58;;;;;;;29.13;26.00;;;20.10;36.90;;;;;;5070312;28;20214;-84
2022/05/20 07:50:24;;;;;;;33.03;26.17;;;19.90;39.30;;;;;;5074539;28;20188;-77
2022/05/20 07:55:43;;;;;;;31.33;27.20;;;20.10;41.50;;;;;;5072474;28;20181;-78
2022/05/20 07:58:12;;;;;;;32.77;28.97;;;19.90;42.50;;;;;;5069288;28;20273;-77
2022/05/20 08:00:39;;;;;;;30.87;27.57;;;19.80;44.90;;;;;;5068639;28;20188;-76
2022/05/20 08:03:07;;;;;;;34.03;28.67;;;19.70;48.60;;;;;;5071832;28;20224;-78
2022/05/20 08:05:40;;;;;;;32.13;27.93;;;19.90;50.60;;;;;;5074318;28;20193;-77
2022/05/20 08:08:07;;;;;;;30.37;27.17;;;19.90;47.90;;;;;;5074163;28;20198;-80
2022/05/20 08:10:35;;;;;;;30.27;27.03;;;19.90;48.50;;;;;;5070893;28;20175;-78
2022/05/20 08:13:07;;;;;;;34.27;29.43;;;20.00;48.70;;;;;;5067660;28;20191;-79
2022/05/20 08:15:36;;;;;;;30.67;27.37;;;20.20;46.40;;;;;;5069876;28;20238;-78
2022/05/20 08:18:05;;;;;;;31.00;27.80;;;20.10;48.70;;;;;;5066467;28;20205;-84
2022/05/20 08:20:34;;;;;;;33.13;28.33;;;20.10;51.60;;;;;;5072237;28;20170;-76
2022/05/20 08:23:05;;;;;;;32.50;29.13;;;20.20;50.30;;;;;;5063759;28;20202;-86
2022/05/20 08:25:43;;;;;;;36.07;31.00;;;20.50;48.40;;;;;;5058113;28;20187;-78
2022/05/20 08:28:09;;;;;;;32.70;28.70;;;20.30;48.90;;;;;;5058299;28;20258;-81
2022/05/20 08:30:54;;;;;;;34.77;31.10;;;20.30;53.00;;;;;;5058257;28;20271;-79
2022/05/20 08:33:20;;;;;;;33.73;30.13;;;20.20;56.30;;;;;;5059367;28;20219;-84
2022/05/20 08:35:46;;;;;;;34.80;31.07;;;20.30;55.90;;;;;;5063070;28;20190;-84
2022/05/20 08:38:12;;;;;;;33.63;30.10;;;20.30;53.30;;;;;;5065944;28;20652;-84
2022/05/20 08:40:43;;;;;;;34.53;30.93;;;20.40;54.10;;;;;;5062471;28;20536;-79
2022/05/20 08:43:11;;;;;;;36.10;32.10;;;20.50;51.60;;;;;;5064122;28;20574;-77
2022/05/20 08:45:37;;;;;;;35.40;31.67;;;20.60;50.70;;;;;;5061662;28;20185;-80
2022/05/20 08:48:05;;;;;;;35.63;31.97;;;20.70;47.80;;;;;;5058629;28;20216;-79
2022/05/20 08:50:47;;;;;;;34.10;30.53;;;20.70;51.70;;;;;;5060417;28;20202;-76
2022/05/20 08:53:30;;;;;;;36.50;32.00;;;20.80;49.60;;;;;;5062907;28;20185;-81
2022/05/20 08:56:08;;;;;;;35.13;30.27;;;20.80;49.70;;;;;;5064880;28;20715;-76
2022/05/20 08:58:35;;;;;;;34.47;29.57;;;20.70;51.50;;;;;;5066064;28;20215;-84
2022/05/20 09:01:01;;;;;;;31.60;28.13;;;20.80;52.30;;;;;;5067050;28;20195;-79
2022/05/20 09:03:26;;;;;;;32.40;28.53;;;20.80;53.10;;;;;;5063963;28;20204;-81
2022/05/20 09:06:15;;;;;;;30.93;26.73;;;21.00;53.00;;;;;;5064240;28;20188;-81
2022/05/20 09:08:41;;;;;;;30.93;27.10;;;21.30;46.70;;;;;;5064235;28;20292;-80
2022/05/20 09:11:13;;;;;;;29.27;26.13;;;21.50;44.10;;;;;;5060492;28;20181;-79
2022/05/20 09:16:31;;;;;;;30.67;27.47;;;21.50;45.80;;;;;;5063945;28;20192;-83
2022/05/20 09:19:08;;;;;;;30.40;27.30;;;21.40;45.90;;;;;;5059294;28;20769;-82
2022/05/20 09:21:40;;;;;;;30.43;27.33;;;21.40;48.60;;;;;;5053987;28;20214;-85
2022/05/20 09:24:21;;;;;;;31.33;28.10;;;21.30;50.90;;;;;;5054820;28;20198;-78
2022/05/20 09:27:12;;;;;;;30.53;27.30;;;21.40;50.50;;;;;;5055965;28;20235;-78
2022/05/20 09:30:08;;;;;;;30.97;27.83;;;21.40;49.40;;;;;;5056348;28;20199;-76
2022/05/20 09:32:44;;;;;;;29.33;26.33;;;21.50;50.70;;;;;;5055016;28;20230;-79
2022/05/20 09:35:19;;;;;;;31.63;28.37;;;21.40;51.10;;;;;;5057476;28;20199;-78
2022/05/20 09:37:49;;;;;;;30.43;27.13;;;21.20;54.70;;;;;;5056211;28;20215;-81
2022/05/20 09:40:36;;;;;;;31.53;28.17;;;21.10;55.80;;;;;;5055396;28;20189;-87
2022/05/20 09:43:22;;;;;;;30.93;27.67;;;21.10;57.80;;;;;;5054672;28;20181;-81
2022/05/20 09:45:49;;;;;;;36.03;30.23;;;21.10;57.60;;;;;;5056547;28;20176;-85
2022/05/20 09:48:51;;;;;;;33.23;29.77;;;21.10;59.90;;;;;;5055558;28;20643;-84
2022/05/20 09:51:40;;;;;;;33.10;29.63;;;21.00;60.40;;;;;;5057592;28;20211;-85
2022/05/20 09:54:43;;;;;;;35.67;31.50;;;20.90;63.70;;;;;;5058900;28;20323;-78
2022/05/20 09:57:27;;;;;;;34.53;31.10;;;21.00;64.00;;;;;;5046248;28;20302;-81
2022/05/20 10:00:09;;;;;;;34.10;30.50;;;21.10;63.50;;;;;;5056743;28;20714;-81
2022/05/20 10:02:38;;;;;;;35.63;31.93;;;21.10;61.90;;;;;;5057903;28;20591;-78
2022/05/20 10:05:37;;;;;;;34.90;31.37;;;21.10;61.10;;;;;;5058426;28;20192;-83
2022/05/20 10:08:39;;;;;;;35.43;30.63;;;21.10;61.50;;;;;;5060483;28;20528;-83
2022/05/20 10:11:24;;;;;;;35.07;31.07;;;21.20;64.40;;;;;;5052797;28;20206;-81
2022/05/20 10:14:09;;;;;;;34.47;30.83;;;21.30;63.40;;;;;;5057623;28;20223;-84
2022/05/20 10:17:02;;;;;;;35.40;31.80;;;21.40;62.10;;;;;;5058888;28;20173;-78
2022/05/20 10:19:50;;;;;;;34.53;30.97;;;21.30;61.50;;;;;;5059347;28;20197;-80
2022/05/20 10:22:43;;;;;;;34.83;30.33;;;21.30;62.00;;;;;;5058998;28;20311;-81
2022/05/20 10:25:31;;;;;;;34.67;31.03;;;21.60;60.10;;;;;;5060519;28;20276;-84
2022/05/20 10:32:34;;;;;;;35.07;29.20;;;21.60;59.30;;;;;;5060969;28;20217;-76
2022/05/20 10:34:09;;;;;;;35.43;31.93;;;21.80;60.80;;;;;;5065419;28;20203;-77
2022/05/20 10:36:41;;;;;;;33.80;30.30;;;21.90;56.60;;;;;;5068514;28;20197;-80
2022/05/20 10:39:53;;;;;;;33.30;29.90;;;22.10;55.90;;;;;;5068294;28;20546;-79
2022/05/20 10:42:59;;;;;;;36.87;31.87;;;22.40;51.30;;;;;;5070138;28;20185;-85
2022/05/20 10:48:51;;;;;;;35.37;31.73;;;22.60;48.10;;;;;;5061296;28;20215;-85
2022/05/20 10:51:54;;;;;;;34.10;30.60;;;22.50;51.40;;;;;;5060399;28;20182;-77
2022/05/20 10:54:23;;;;;;;33.13;29.73;;;22.50;56.30;;;;;;5062022;28;20230;-85
2022/05/20 10:57:03;;;;;;;33.30;29.77;;;22.80;53.50;;;;;;5061003;28;20202;-80
2022/05/20 10:59:38;;;;;;;33.70;30.07;;;22.70;52.40;;;;;;5061032;28;20210;-77
2022/05/20 11:02:32;;;;;;;34.63;30.93;;;22.60;56.90;;;;;;5063742;28;20209;-83
2022/05/20 11:05:04;;;;;;;37.20;31.03;;;22.60;59.30;;;;;;5064261;28;20184;-85
2022/05/20 11:08:05;;;;;;;34.90;31.37;;;22.50;59.00;;;;;;5061190;28;20253;-85
2022/05/20 11:10:51;;;;;;;34.57;30.93;;;22.20;67.60;;;;;;5064119;28;20204;-86
2022/05/20 11:13:35;;;;;;;35.77;32.10;;;22.10;72.60;;;;;;5064512;28;20194;-83
2022/05/20 11:16:12;;;;;;;38.00;33.97;;;21.90;78.40;;;;;;5058928;28;20190;-83
2022/05/20 11:19:19;;;;;;;38.67;34.63;;;21.90;81.80;;;;;;5058641;28;20243;-80
2022/05/20 11:22:11;;;;;;;39.20;35.00;;;21.90;84.00;;;;;;5062979;28;20188;-84
2022/05/20 11:24:45;;;;;;;39.00;34.90;;;21.90;86.20;;;;;;5062518;28;20207;-78
2022/05/20 11:27:40;;;;;;;35.37;31.87;;;22.00;86.30;;;;;;5062571;28;20176;-82
2022/05/20 11:30:22;;;;;;;32.53;29.20;;;21.90;86.20;;;;;;5055852;28;20277;-80
2022/05/20 11:33:14;;;;;;;27.80;24.90;;;22.00;86.40;;;;;;5061122;28;20187;-80
2022/05/20 11:36:00;;;;;;;30.03;27.07;;;22.00;84.40;;;;;;5056841;28;20190;-81
2022/05/20 11:38:42;;;;;;;30.23;25.60;;;22.10;84.80;;;;;;5057163;28;20220;-82
2022/05/20 11:41:26;;;;;;;29.60;26.30;;;22.00;85.60;;;;;;5057476;28;20241;-84
2022/05/20 11:44:07;;;;;;;27.90;24.93;;;22.00;86.90;;;;;;5064123;28;20168;-78
2022/05/20 11:47:07;;;;;;;25.67;22.30;;;22.10;85.30;;;;;;5070666;28;20630;-79
2022/05/20 11:50:02;;;;;;;26.23;18.20;;;22.00;83.40;;;;;;5062187;28;20259;-79
2022/05/20 11:52:42;;;;;;;17.13;13.60;;;22.00;80.30;;;;;;5059235;28;20174;-77
2022/05/20 11:55:27;;;;;;;12.03;8.97;;;21.90;79.00;;;;;;5057751;28;20265;-79
2022/05/20 11:58:00;;;;;;;8.57;5.77;;;21.90;72.40;;;;;;5057594;28;20313;-87
2022/05/20 12:00:27;;;;;;;7.17;4.50;;;21.80;62.50;;;;;;5056688;28;20186;-86
2022/05/20 12:03:01;;;;;;;7.83;3.90;;;21.70;59.10;;;;;;5057759;28;20535;-79
2022/05/20 12:05:31;;;;;;;5.80;3.67;;;21.50;61.70;;;;;;5056908;28;20260;-78
2022/05/20 12:08:00;;;;;;;3.87;2.20;;;21.60;59.60;;;;;;5067609;28;20177;-78
2022/05/20 12:10:32;;;;;;;3.57;1.93;;;21.60;57.80;;;;;;5075810;28;20178;-79
2022/05/20 12:13:19;;;;;;;4.80;2.00;;;21.60;57.20;;;;;;5067369;28;20645;-81
2022/05/20 12:16:22;;;;;;;4.97;2.43;;;21.60;56.90;;;;;;5064997;28;20319;-85
2022/05/20 12:24:40;;;;;;;7.03;2.30;;;21.50;65.20;;;;;;5059996;28;20195;-83
2022/05/20 12:27:31;;;;;;;5.23;2.17;;;21.40;68.10;;;;;;5059553;28;20188;-85
2022/05/20 12:29:59;;;;;;;5.13;1.80;;;21.40;71.00;;;;;;5063674;28;20221;-85
2022/05/20 12:32:39;;;;;;;3.40;1.80;;;21.40;71.10;;;;;;5063945;28;20186;-84
2022/05/20 12:35:38;;;;;;;5.43;1.70;;;21.50;71.80;;;;;;5064008;28;20182;-84
2022/05/20 12:38:25;;;;;;;4.70;2.10;;;21.60;72.10;;;;;;5056908;28;20267;-78
2022/05/20 12:40:54;;;;;;;3.40;2.13;;;21.50;76.10;;;;;;5062546;28;20625;-85
2022/05/20 12:43:41;;;;;;;5.60;2.50;;;21.60;74.80;;;;;;5057242;28;20165;-84
2022/05/20 12:46:13;;;;;;;4.50;2.40;;;21.70;75.80;;;;;;5057994;28;20208;-82
2022/05/20 12:48:39;;;;;;;4.67;2.50;;;21.50;82.10;;;;;;5056671;28;20161;-84
2022/05/20 12:51:07;;;;;;;6.63;3.10;;;21.30;87.40;;;;;;5056488;28;20199;-86
2022/05/20 12:53:38;;;;;;;6.03;2.90;;;21.30;90.70;;;;;;5067024;28;20643;-84
2022/05/20 12:56:05;;;;;;;5.97;3.57;;;21.10;92.00;;;;;;5058425;28;20162;-85
2022/05/20 12:58:34;;;;;;;7.20;4.20;;;21.20;92.50;;;;;;5058119;28;20247;-82
2022/05/20 13:01:04;;;;;;;5.13;3.70;;;21.10;94.50;;;;;;5058365;28;20185;-86
2022/05/20 13:03:35;;;;;;;5.60;3.70;;;20.90;94.50;;;;;;5057490;28;20249;-79
2022/05/20 13:06:16;;;;;;;7.70;4.70;;;20.90;94.40;;;;;;5058332;28;20172;-78
2022/05/20 13:08:45;;;;;;;8.90;5.27;;;20.80;95.40;;;;;;5071239;28;20219;-79
2022/05/20 13:11:13;;;;;;;10.23;5.43;;;20.70;96.90;;;;;;5072640;28;20176;-82
2022/05/20 13:13:41;;;;;;;7.13;4.63;;;20.70;97.60;;;;;;5071439;28;20191;-79
2022/05/20 13:16:11;;;;;;;8.60;5.80;;;20.60;97.10;;;;;;5074294;28;20170;-75
2022/05/20 13:18:40;;;;;;;6.10;4.37;;;20.50;98.00;;;;;;5075171;28;20223;-80
2022/05/20 13:21:31;;;;;;;6.47;4.00;;;20.50;98.70;;;;;;5070159;28;20185;-79
2022/05/20 13:24:11;;;;;;;7.07;4.10;;;20.50;97.50;;;;;;5069767;28;20202;-79
2022/05/20 13:26:42;;;;;;;5.20;3.70;;;20.50;98.00;;;;;;5067655;28;20197;-80
2022/05/20 13:29:42;;;;;;;5.73;3.40;;;20.50;97.80;;;;;;5060269;28;20178;-82
2022/05/20 13:32:51;;;;;;;4.83;3.60;;;20.50;97.90;;;;;;5059902;28;20163;-85
2022/05/20 13:35:18;;;;;;;6.50;4.10;;;20.60;98.40;;;;;;5062327;28;20189;-80